Time;durP1;ratioP1;P1;durP2;ratioP2;P2;SDS_P1;SDS_P2;PMS_P1;PMS_P2;Temp;Humidity;BMP_temperature;BMP_pressure;BME280_temperature;BME280_humidity;BME280_pressure;Samples;Min_cycle;Max_cycle;Signal;HPM_P1;HPM_P2
2022/03/12 00:00:48;;;;;;;10.90;6.25;;;6.20;93.40;;;;;;6214052;23;20008;-77
2022/03/12 00:03:15;;;;;;;11.13;6.50;;;6.20;93.80;;;;;;6215170;23;20286;-77
2022/03/12 00:05:47;;;;;;;19.80;6.55;;;6.20;94.00;;;;;;6215752;23;20146;-77
2022/03/12 00:08:14;;;;;;;12.88;6.22;;;6.20;94.20;;;;;;6214904;23;20363;-76
2022/03/12 00:10:44;;;;;;;15.80;6.82;;;6.10;94.70;;;;;;6186818;23;20389;-80
2022/03/12 00:13:10;;;;;;;11.82;6.53;;;6.10;94.50;;;;;;6213416;23;20020;-79
2022/03/12 00:15:37;;;;;;;9.65;6.45;;;6.20;94.20;;;;;;6213515;23;20103;-78
2022/03/12 00:18:05;;;;;;;15.07;6.90;;;6.20;94.40;;;;;;6189347;23;20397;-79
2022/03/12 00:20:34;;;;;;;13.55;6.70;;;6.20;94.30;;;;;;6215529;23;20073;-75
2022/03/12 00:23:00;;;;;;;14.25;6.30;;;6.10;94.40;;;;;;6187319;23;20081;-79
2022/03/12 00:25:26;;;;;;;11.18;6.35;;;6.10;94.70;;;;;;6188497;23;20016;-81
2022/03/12 00:27:52;;;;;;;15.20;7.22;;;6.10;94.50;;;;;;6215717;23;20013;-81
2022/03/12 00:30:24;;;;;;;15.73;6.75;;;6.60;94.60;;;;;;6214272;23;20019;-78
2022/03/12 00:32:53;;;;;;;15.75;6.32;;;6.10;94.80;;;;;;6214581;23;20012;-80
2022/03/12 00:35:20;;;;;;;13.30;6.70;;;6.10;94.60;;;;;;6222343;23;20456;-79
2022/03/12 00:37:46;;;;;;;17.60;7.22;;;6.10;94.50;;;;;;6215096;23;20019;-76
2022/03/12 00:40:14;;;;;;;11.82;6.90;;;6.20;94.10;;;;;;6238467;23;20023;-77
2022/03/12 00:42:40;;;;;;;10.90;6.80;;;6.10;94.50;;;;;;6240405;23;20008;-81
2022/03/12 00:45:06;;;;;;;22.35;6.63;;;6.10;94.50;;;;;;6214353;23;20424;-79
2022/03/12 00:47:31;;;;;;;12.48;6.30;;;6.20;94.50;;;;;;6241154;23;20027;-80
2022/03/12 00:49:57;;;;;;;10.50;6.53;;;6.20;94.30;;;;;;6214670;23;20411;-77
2022/03/12 00:52:23;;;;;;;11.27;6.90;;;6.10;94.50;;;;;;6238814;23;20298;-77
2022/03/12 00:54:48;;;;;;;10.52;6.82;;;6.10;94.50;;;;;;6239204;23;20012;-81
2022/03/12 00:57:14;;;;;;;13.32;7.03;;;6.10;94.60;;;;;;6238326;23;20016;-77
2022/03/12 00:59:44;;;;;;;14.43;6.85;;;6.10;94.60;;;;;;6238225;23;20079;-77
2022/03/12 01:02:11;;;;;;;15.98;6.82;;;6.10;94.70;;;;;;6215177;23;20015;-76
2022/03/12 01:04:37;;;;;;;20.58;7.28;;;6.10;94.80;;;;;;6241038;23;20051;-77
2022/03/12 01:07:03;;;;;;;10.75;6.50;;;6.10;94.40;;;;;;6215519;23;20047;-79
2022/03/12 01:09:29;;;;;;;12.05;6.13;;;6.10;94.50;;;;;;6240322;23;20052;-79
2022/03/12 01:11:55;;;;;;;14.35;6.50;;;6.00;95.20;;;;;;6240690;23;20020;-79
2022/03/12 01:14:21;;;;;;;12.88;6.38;;;6.00;95.00;;;;;;6240405;23;20016;-77
2022/03/12 01:16:47;;;;;;;12.85;6.93;;;6.00;95.10;;;;;;6215991;23;20023;-76
2022/03/12 01:19:15;;;;;;;10.93;6.47;;;6.00;95.20;;;;;;6243203;23;20028;-77
2022/03/12 01:21:41;;;;;;;10.45;6.97;;;6.00;95.10;;;;;;6218328;23;20108;-76
2022/03/12 01:24:07;;;;;;;10.63;6.70;;;6.00;95.50;;;;;;6244365;22;20027;-76
2022/03/12 01:26:38;;;;;;;15.27;7.03;;;5.90;95.50;;;;;;6242726;23;20110;-78
2022/03/12 01:29:07;;;;;;;13.75;6.28;;;5.90;95.60;;;;;;6216754;23;20037;-77
2022/03/12 01:31:34;;;;;;;13.45;6.40;;;5.90;95.90;;;;;;6216862;23;20012;-77
2022/03/12 01:34:00;;;;;;;20.92;7.18;;;5.90;96.00;;;;;;6242516;23;20857;-78
2022/03/12 01:36:26;;;;;;;13.20;6.85;;;5.90;95.80;;;;;;6216888;23;20020;-77
2022/03/12 01:38:54;;;;;;;12.57;7.05;;;5.90;96.20;;;;;;6242774;23;20019;-79
2022/03/12 01:41:25;;;;;;;13.57;6.88;;;5.80;96.10;;;;;;6242997;23;20012;-78
2022/03/12 01:43:53;;;;;;;12.98;6.07;;;5.80;96.40;;;;;;6242079;23;20015;-75
2022/03/12 01:46:30;;;;;;;13.70;6.63;;;5.70;96.60;;;;;;6242584;23;20023;-79
2022/03/12 01:48:59;;;;;;;16.48;7.13;;;5.80;96.50;;;;;;6242812;23;20016;-78
2022/03/12 01:51:29;;;;;;;14.50;6.95;;;5.80;96.20;;;;;;6217582;23;20016;-78
2022/03/12 01:53:55;;;;;;;12.90;6.85;;;5.70;96.90;;;;;;6242650;23;20093;-77
2022/03/12 01:56:27;;;;;;;11.25;7.50;;;5.70;96.70;;;;;;6241852;23;20082;-77
2022/03/12 01:58:54;;;;;;;9.82;6.38;;;5.70;96.60;;;;;;6242805;23;20486;-79
2022/03/12 02:01:21;;;;;;;17.35;7.50;;;5.70;97.00;;;;;;6242085;23;20095;-80
2022/03/12 02:03:48;;;;;;;10.88;6.70;;;5.70;97.10;;;;;;6216179;23;20008;-75
2022/03/12 02:06:19;;;;;;;11.27;6.88;;;5.70;97.00;;;;;;6216943;22;20008;-80
2022/03/12 02:08:48;;;;;;;13.35;6.93;;;5.80;97.10;;;;;;6243003;23;20087;-78
2022/03/12 02:11:13;;;;;;;13.05;7.20;;;5.70;97.20;;;;;;6217050;23;20012;-78
2022/03/12 02:13:40;;;;;;;14.52;6.72;;;5.70;97.30;;;;;;6217520;23;20448;-78
2022/03/12 02:16:08;;;;;;;11.05;7.22;;;5.60;97.90;;;;;;6215569;23;20384;-78
2022/03/12 02:18:36;;;;;;;11.90;6.90;;;5.60;98.00;;;;;;6216479;23;20089;-74
2022/03/12 02:21:05;;;;;;;15.65;7.68;;;5.60;98.10;;;;;;6244453;22;20016;-77
2022/03/12 02:23:48;;;;;;;12.70;7.47;;;5.60;98.30;;;;;;6217662;23;20016;-78
2022/03/12 02:26:13;;;;;;;14.68;7.78;;;5.50;98.70;;;;;;6217195;23;20012;-77
2022/03/12 02:28:39;;;;;;;13.90;7.28;;;5.50;99.00;;;;;;6216834;23;20789;-78
2022/03/12 02:31:05;;;;;;;14.85;7.10;;;5.50;98.70;;;;;;6241340;23;20016;-79
2022/03/12 02:33:31;;;;;;;14.43;6.97;;;5.50;98.40;;;;;;6242980;23;20094;-81
2022/03/12 02:35:58;;;;;;;10.40;7.05;;;5.50;98.70;;;;;;6242114;23;20027;-76
2022/03/12 02:38:26;;;;;;;14.50;7.13;;;5.50;98.60;;;;;;6216939;23;20031;-77
2022/03/12 02:40:52;;;;;;;17.15;7.60;;;5.50;98.50;;;;;;6216375;23;20388;-77
2022/03/12 02:43:24;;;;;;;16.48;7.78;;;5.60;98.40;;;;;;6217463;23;20043;-77
2022/03/12 02:45:51;;;;;;;19.38;7.43;;;5.50;98.60;;;;;;6240674;23;20016;-76
2022/03/12 02:48:18;;;;;;;20.85;7.68;;;5.60;98.50;;;;;;6242350;23;20020;-77
2022/03/12 02:50:45;;;;;;;12.10;7.63;;;5.60;98.70;;;;;;6216619;23;20096;-76
2022/03/12 02:53:11;;;;;;;15.43;7.22;;;5.50;98.90;;;;;;6242629;23;20039;-77
2022/03/12 02:55:41;;;;;;;13.77;7.22;;;5.60;98.90;;;;;;6216402;23;20012;-76
2022/03/12 02:58:10;;;;;;;15.43;8.10;;;5.50;98.70;;;;;;6242630;23;20020;-76
2022/03/12 03:00:37;;;;;;;13.32;6.95;;;5.60;98.60;;;;;;6240951;23;20043;-77
2022/03/12 03:03:05;;;;;;;11.63;7.20;;;5.70;98.50;;;;;;6216530;23;20058;-79
2022/03/12 03:05:41;;;;;;;13.73;7.25;;;5.70;98.20;;;;;;6216414;23;20136;-78
2022/03/12 03:08:09;;;;;;;14.55;7.68;;;5.70;98.10;;;;;;6216311;23;20092;-80
2022/03/12 03:10:41;;;;;;;12.85;8.05;;;5.70;98.50;;;;;;6241532;23;20077;-75
2022/03/12 03:13:16;;;;;;;14.35;8.10;;;5.50;98.70;;;;;;6216363;23;20044;-75
2022/03/12 03:15:46;;;;;;;17.00;7.78;;;5.60;99.20;;;;;;6215550;23;20332;-77
2022/03/12 03:18:15;;;;;;;16.48;7.40;;;5.50;99.00;;;;;;6216347;23;20320;-78
2022/03/12 03:20:42;;;;;;;12.73;7.32;;;5.60;99.20;;;;;;6241395;23;20432;-75
2022/03/12 03:23:11;;;;;;;20.23;7.55;;;5.50;99.30;;;;;;6216299;23;20107;-78
2022/03/12 03:25:37;;;;;;;13.52;7.68;;;5.60;98.90;;;;;;6215676;23;20016;-74
2022/03/12 03:28:05;;;;;;;12.48;7.38;;;5.60;98.80;;;;;;6216551;23;20048;-75
2022/03/12 03:30:35;;;;;;;15.00;7.65;;;5.60;98.70;;;;;;6240681;23;20016;-77
2022/03/12 03:33:03;;;;;;;13.85;7.20;;;5.60;98.70;;;;;;6241506;23;20069;-76
2022/03/12 03:35:29;;;;;;;13.18;7.10;;;5.60;98.90;;;;;;6241019;23;20480;-77
2022/03/12 03:37:56;;;;;;;17.88;7.57;;;5.60;98.90;;;;;;6241460;23;20043;-76
2022/03/12 03:40:22;;;;;;;19.48;7.75;;;5.60;98.50;;;;;;6243234;22;20054;-75
2022/03/12 03:42:47;;;;;;;13.48;7.20;;;5.60;98.50;;;;;;6215984;23;20391;-79
2022/03/12 03:45:21;;;;;;;11.88;7.38;;;5.60;98.60;;;;;;6239984;23;20044;-76
2022/03/12 03:47:47;;;;;;;15.48;7.70;;;5.60;99.20;;;;;;6215844;23;20091;-77
2022/03/12 03:50:13;;;;;;;11.00;7.43;;;5.60;99.20;;;;;;6216020;23;20011;-77
2022/03/12 03:52:39;;;;;;;16.92;7.85;;;5.50;99.30;;;;;;6241445;23;20038;-77
2022/03/12 03:55:05;;;;;;;14.15;7.80;;;5.50;99.70;;;;;;6241071;23;20012;-80
2022/03/12 03:57:31;;;;;;;11.02;7.28;;;5.50;99.80;;;;;;6241524;23;20069;-77
2022/03/12 03:59:57;;;;;;;13.23;7.13;;;5.50;99.50;;;;;;6214668;23;20047;-78
2022/03/12 04:02:23;;;;;;;13.02;7.20;;;5.50;99.50;;;;;;6215931;23;20012;-80
2022/03/12 04:04:49;;;;;;;12.65;7.25;;;5.50;99.60;;;;;;6243325;22;20012;-76
2022/03/12 04:07:15;;;;;;;10.15;6.93;;;5.40;99.70;;;;;;6241427;22;20014;-78
2022/03/12 04:09:41;;;;;;;10.13;7.07;;;5.40;99.80;;;;;;6241248;23;20022;-76
2022/03/12 04:12:07;;;;;;;10.27;6.85;;;5.50;99.10;;;;;;6241021;23;20065;-78
2022/03/12 04:14:33;;;;;;;10.77;6.85;;;5.40;99.60;;;;;;6241133;23;20012;-78
2022/03/12 04:16:59;;;;;;;12.95;7.70;;;5.40;99.80;;;;;;6240491;23;20462;-81
2022/03/12 04:19:28;;;;;;;13.57;7.40;;;5.40;99.90;;;;;;6241374;23;20016;-77
2022/03/12 04:21:57;;;;;;;11.48;7.40;;;5.30;99.90;;;;;;6241306;23;20451;-77
2022/03/12 04:24:25;;;;;;;15.05;7.47;;;5.30;99.90;;;;;;6215913;23;20015;-78
2022/03/12 04:26:52;;;;;;;12.00;7.50;;;5.20;99.90;;;;;;6215618;23;20009;-76
2022/03/12 04:29:18;;;;;;;13.90;8.00;;;5.20;99.90;;;;;;6215669;23;20035;-79
2022/03/12 04:31:47;;;;;;;11.63;7.53;;;5.20;99.90;;;;;;6215485;23;20012;-80
2022/03/12 04:34:14;;;;;;;14.00;7.88;;;5.20;99.90;;;;;;6241050;23;20073;-77
2022/03/12 04:36:44;;;;;;;13.05;7.63;;;5.20;99.90;;;;;;6214957;23;20067;-75
2022/03/12 04:39:11;;;;;;;13.73;6.85;;;5.20;99.90;;;;;;6241120;23;20522;-80
2022/03/12 04:41:39;;;;;;;12.65;7.15;;;5.10;99.90;;;;;;6241288;23;20336;-78
2022/03/12 04:44:06;;;;;;;14.70;7.82;;;5.20;99.90;;;;;;6241139;23;20408;-76
2022/03/12 04:46:33;;;;;;;19.58;7.65;;;5.10;99.90;;;;;;6240310;23;20361;-79
2022/03/12 04:48:59;;;;;;;10.70;7.00;;;5.00;99.90;;;;;;6241029;23;20016;-79
2022/03/12 04:51:24;;;;;;;11.85;6.97;;;5.10;99.90;;;;;;6241888;23;20012;-79
2022/03/12 04:53:55;;;;;;;14.20;7.60;;;5.10;99.90;;;;;;6243747;23;20020;-80
2022/03/12 04:56:23;;;;;;;12.65;7.47;;;5.00;99.90;;;;;;6243420;23;20016;-78
2022/03/12 04:58:49;;;;;;;12.10;6.90;;;5.10;99.90;;;;;;6218065;23;20070;-76
2022/03/12 05:01:15;;;;;;;12.98;7.53;;;5.10;99.90;;;;;;6242656;23;20016;-78
2022/03/12 05:03:43;;;;;;;15.32;7.53;;;5.10;99.90;;;;;;6243368;23;20459;-79
2022/03/12 05:06:13;;;;;;;13.80;7.35;;;5.00;99.90;;;;;;6216927;22;20340;-77
2022/03/12 05:08:39;;;;;;;12.18;7.18;;;5.00;99.90;;;;;;6217048;23;20015;-79
2022/03/12 05:11:06;;;;;;;9.77;6.40;;;5.00;99.90;;;;;;6216919;23;20020;-79
2022/03/12 05:13:32;;;;;;;17.33;7.15;;;5.00;99.90;;;;;;6242669;23;20083;-79
2022/03/12 05:16:05;;;;;;;14.95;7.15;;;5.00;99.90;;;;;;6216323;23;20016;-79
2022/03/12 05:18:32;;;;;;;10.48;7.03;;;5.00;99.90;;;;;;6244516;22;20308;-77
2022/03/12 05:20:57;;;;;;;13.70;7.00;;;5.10;99.90;;;;;;6242495;23;20432;-79
2022/03/12 05:23:24;;;;;;;11.18;6.57;;;5.10;99.90;;;;;;6242865;23;20067;-77
2022/03/12 05:25:50;;;;;;;13.40;7.18;;;5.20;99.90;;;;;;6216916;23;20012;-79
2022/03/12 05:28:21;;;;;;;10.60;6.80;;;5.20;99.90;;;;;;6241883;23;20420;-79
2022/03/12 05:30:47;;;;;;;11.80;7.68;;;5.20;99.90;;;;;;6241626;23;20023;-77
2022/03/12 05:33:16;;;;;;;15.75;7.07;;;5.20;99.90;;;;;;6242285;23;20095;-76
2022/03/12 05:35:43;;;;;;;11.95;6.97;;;5.30;99.90;;;;;;6217383;23;20028;-79
2022/03/12 05:38:11;;;;;;;12.02;6.80;;;5.10;99.90;;;;;;6242263;23;20012;-77
2022/03/12 05:40:39;;;;;;;9.10;6.70;;;5.10;99.90;;;;;;6242668;23;20054;-78
2022/03/12 05:43:15;;;;;;;10.90;6.85;;;5.10;99.90;;;;;;6243001;23;20012;-75
2022/03/12 05:45:45;;;;;;;11.68;6.55;;;5.10;99.90;;;;;;6215747;23;20369;-80
2022/03/12 05:48:11;;;;;;;14.38;6.95;;;5.20;99.90;;;;;;6217134;23;20027;-78
2022/03/12 05:50:38;;;;;;;10.52;6.85;;;5.20;99.90;;;;;;6242692;23;20012;-76
2022/03/12 05:53:08;;;;;;;10.20;6.80;;;5.20;99.90;;;;;;6242398;23;20012;-81
2022/03/12 05:55:35;;;;;;;9.18;6.50;;;5.20;99.90;;;;;;6242143;23;20012;-75
2022/03/12 05:58:01;;;;;;;10.07;6.63;;;5.20;99.90;;;;;;6242486;23;20016;-79
2022/03/12 06:00:27;;;;;;;9.68;6.93;;;5.20;99.90;;;;;;6242688;22;20019;-77
2022/03/12 06:02:53;;;;;;;12.48;6.85;;;5.20;99.90;;;;;;6242524;23;20012;-74
2022/03/12 06:05:26;;;;;;;12.07;6.40;;;5.20;99.90;;;;;;6242164;23;20023;-80
2022/03/12 06:07:53;;;;;;;15.70;6.85;;;5.20;99.90;;;;;;6242061;22;20103;-79
2022/03/12 06:10:21;;;;;;;10.48;7.05;;;5.20;99.90;;;;;;6217408;23;20085;-77
2022/03/12 06:12:50;;;;;;;12.57;7.03;;;5.30;99.90;;;;;;6242817;23;20016;-80
2022/03/12 06:15:17;;;;;;;12.40;7.60;;;5.20;99.90;;;;;;6241188;23;20027;-74
2022/03/12 06:17:47;;;;;;;11.57;7.30;;;5.20;99.90;;;;;;6243226;23;20012;-81
2022/03/12 06:20:14;;;;;;;11.00;7.00;;;5.20;99.90;;;;;;6242541;23;20019;-76
2022/03/12 06:22:40;;;;;;;10.25;5.80;;;5.20;99.90;;;;;;6242001;23;20088;-78
2022/03/12 06:25:11;;;;;;;10.02;6.82;;;5.70;99.90;;;;;;6241901;23;20362;-79
2022/03/12 06:27:37;;;;;;;11.90;7.20;;;5.40;99.90;;;;;;6242670;23;20012;-77
2022/03/12 06:30:09;;;;;;;10.95;6.78;;;5.40;99.90;;;;;;6215700;23;20027;-76
2022/03/12 06:32:36;;;;;;;9.70;7.13;;;5.30;99.90;;;;;;6241047;23;20051;-78
2022/03/12 06:35:03;;;;;;;11.80;6.75;;;5.30;99.90;;;;;;6215263;23;20024;-77
2022/03/12 06:37:29;;;;;;;9.65;6.72;;;5.30;99.90;;;;;;6241138;23;20078;-79
2022/03/12 06:39:55;;;;;;;11.20;6.72;;;5.30;99.90;;;;;;6239770;23;20055;-78
2022/03/12 06:42:23;;;;;;;12.60;6.65;;;5.20;99.90;;;;;;6241010;23;20087;-79
2022/03/12 06:44:52;;;;;;;14.50;6.70;;;5.20;99.90;;;;;;6214620;23;20100;-77
2022/03/12 06:47:18;;;;;;;15.40;7.00;;;5.20;99.90;;;;;;6215263;23;20023;-77
2022/03/12 06:49:44;;;;;;;14.50;6.32;;;5.20;99.90;;;;;;6241075;23;20046;-77
2022/03/12 06:52:10;;;;;;;14.15;6.50;;;5.30;99.90;;;;;;6240878;23;20035;-77
2022/03/12 06:54:36;;;;;;;10.80;6.55;;;5.30;99.90;;;;;;6240009;23;20020;-78
2022/03/12 06:57:03;;;;;;;12.68;6.93;;;5.40;99.90;;;;;;6215441;23;20016;-77
2022/03/12 06:59:29;;;;;;;14.63;6.75;;;5.30;99.90;;;;;;6215822;23;20020;-79
2022/03/12 07:01:55;;;;;;;9.45;6.50;;;5.30;99.90;;;;;;6240661;23;20436;-77
2022/03/12 07:04:21;;;;;;;11.93;6.35;;;5.40;99.90;;;;;;6241295;23;20055;-79
2022/03/12 07:06:48;;;;;;;11.75;6.18;;;5.40;99.90;;;;;;6216523;23;20009;-81
2022/03/12 07:09:15;;;;;;;11.52;6.60;;;5.50;99.90;;;;;;6216288;23;20082;-78
2022/03/12 07:11:40;;;;;;;11.90;6.93;;;5.60;99.90;;;;;;6241261;23;20051;-75
2022/03/12 07:14:06;;;;;;;12.75;6.40;;;5.60;99.90;;;;;;6240763;23;20020;-78
2022/03/12 07:16:32;;;;;;;11.18;6.90;;;5.50;99.90;;;;;;6241440;23;20008;-79
2022/03/12 07:18:57;;;;;;;11.13;6.38;;;5.60;99.90;;;;;;6241774;23;20016;-76
2022/03/12 07:21:24;;;;;;;14.18;6.60;;;5.60;99.90;;;;;;6217047;23;20103;-78
2022/03/12 07:23:50;;;;;;;13.05;6.63;;;5.60;99.90;;;;;;6241465;23;20020;-79
2022/03/12 07:26:16;;;;;;;14.55;6.72;;;5.70;99.90;;;;;;6241898;23;20018;-76
2022/03/12 07:28:41;;;;;;;10.25;6.75;;;5.60;99.90;;;;;;6216862;23;20434;-77
2022/03/12 07:31:07;;;;;;;15.80;6.63;;;5.60;99.90;;;;;;6215880;23;20106;-78
2022/03/12 07:33:33;;;;;;;11.20;6.82;;;5.60;99.90;;;;;;6217171;23;20440;-75
2022/03/12 07:35:59;;;;;;;10.98;6.68;;;5.50;99.90;;;;;;6242044;23;20024;-79
2022/03/12 07:38:25;;;;;;;11.48;6.10;;;5.60;99.90;;;;;;6217032;23;20027;-77
2022/03/12 07:40:51;;;;;;;20.30;7.13;;;5.60;99.90;;;;;;6241984;23;20103;-79
2022/03/12 07:43:16;;;;;;;12.18;6.35;;;5.60;99.90;;;;;;6217473;23;20047;-76
2022/03/12 07:45:43;;;;;;;11.68;6.82;;;5.60;99.90;;;;;;6215799;23;20095;-79
2022/03/12 07:48:09;;;;;;;11.27;6.93;;;5.60;99.90;;;;;;6216295;23;20016;-77
2022/03/12 07:50:38;;;;;;;10.38;6.70;;;5.60;99.90;;;;;;6241324;23;20016;-77
2022/03/12 07:53:03;;;;;;;11.07;6.43;;;5.60;99.90;;;;;;6241170;23;20005;-79
2022/03/12 07:55:30;;;;;;;16.15;7.10;;;5.70;99.90;;;;;;6241314;23;20016;-77
2022/03/12 07:57:55;;;;;;;10.93;6.63;;;5.80;99.90;;;;;;6216687;23;20050;-78
2022/03/12 08:00:21;;;;;;;11.95;7.22;;;5.90;99.90;;;;;;6215612;23;20332;-75
2022/03/12 08:02:47;;;;;;;12.90;7.28;;;6.00;99.90;;;;;;6241552;23;20381;-80
2022/03/12 08:05:16;;;;;;;11.63;6.82;;;6.10;99.90;;;;;;6240603;23;20012;-77
2022/03/12 08:07:42;;;;;;;14.43;7.30;;;6.10;99.90;;;;;;6241429;22;20012;-80
2022/03/12 08:10:09;;;;;;;10.85;6.82;;;6.30;99.90;;;;;;6215023;23;20016;-78
2022/03/12 08:12:35;;;;;;;19.70;7.15;;;6.20;99.90;;;;;;6215922;23;20023;-79
2022/03/12 08:15:08;;;;;;;16.25;6.88;;;6.30;99.90;;;;;;6239305;23;20020;-77
2022/03/12 08:17:34;;;;;;;10.77;7.15;;;6.40;99.90;;;;;;6242554;22;20087;-83
2022/03/12 08:20:00;;;;;;;10.68;7.15;;;6.40;99.90;;;;;;6240320;23;20020;-78
2022/03/12 08:22:26;;;;;;;12.05;7.75;;;6.50;99.90;;;;;;6242290;23;20103;-77
2022/03/12 08:24:53;;;;;;;16.52;7.40;;;6.60;99.90;;;;;;6214999;23;20403;-77
2022/03/12 08:27:19;;;;;;;17.50;7.55;;;6.70;99.90;;;;;;6241888;23;20047;-76
2022/03/12 08:29:44;;;;;;;12.77;7.47;;;6.80;99.90;;;;;;6241624;23;20012;-79
2022/03/12 08:32:11;;;;;;;11.15;7.40;;;6.90;99.90;;;;;;6242454;23;20016;-78
2022/03/12 08:34:37;;;;;;;20.30;7.57;;;7.00;99.90;;;;;;6217720;23;20055;-79
2022/03/12 08:37:04;;;;;;;17.50;7.70;;;7.10;99.90;;;;;;6216679;23;20321;-80
2022/03/12 08:39:31;;;;;;;14.68;7.63;;;7.20;99.90;;;;;;6217741;23;20016;-74
2022/03/12 08:41:57;;;;;;;10.95;6.57;;;7.30;99.90;;;;;;6244797;23;20087;-81
2022/03/12 08:44:23;;;;;;;15.68;8.00;;;8.30;99.90;;;;;;6192831;23;20051;-84
2022/03/12 08:46:49;;;;;;;13.48;7.85;;;8.30;99.90;;;;;;6217097;23;20016;-79
2022/03/12 08:49:16;;;;;;;15.75;8.13;;;8.20;99.90;;;;;;6218127;23;20297;-75
2022/03/12 08:51:42;;;;;;;15.45;8.38;;;8.20;99.90;;;;;;6218952;23;20370;-77
2022/03/12 08:54:09;;;;;;;20.17;7.85;;;8.40;99.90;;;;;;6192581;23;20332;-76
2022/03/12 08:56:35;;;;;;;12.02;8.20;;;8.30;99.90;;;;;;6217149;23;20016;-79
2022/03/12 08:59:03;;;;;;;23.15;8.63;;;8.40;99.90;;;;;;6218110;23;20510;-78
2022/03/12 09:01:30;;;;;;;15.82;8.23;;;8.50;99.90;;;;;;6217639;23;20432;-75
2022/03/12 09:03:56;;;;;;;13.57;8.25;;;8.50;99.90;;;;;;6192556;23;20023;-81
2022/03/12 09:06:26;;;;;;;12.43;7.97;;;8.70;99.90;;;;;;6217697;22;20483;-81
2022/03/12 09:08:53;;;;;;;18.20;8.38;;;8.80;99.90;;;;;;6219255;23;20061;-81
2022/03/12 09:11:19;;;;;;;17.70;8.85;;;8.90;99.90;;;;;;6194927;23;20107;-78
2022/03/12 09:13:46;;;;;;;15.05;8.65;;;8.90;99.90;;;;;;6194020;23;20012;-79
2022/03/12 09:16:14;;;;;;;19.48;8.50;;;9.00;99.90;;;;;;6217094;23;20012;-79
2022/03/12 09:18:41;;;;;;;13.90;9.50;;;9.10;99.90;;;;;;6217618;23;20016;-79
2022/03/12 09:21:08;;;;;;;17.50;8.93;;;9.20;99.90;;;;;;6218610;23;20008;-78
2022/03/12 09:23:34;;;;;;;16.75;8.63;;;9.30;99.90;;;;;;6191463;23;20335;-79
2022/03/12 09:26:00;;;;;;;16.42;9.02;;;9.40;99.90;;;;;;6217506;23;20036;-77
2022/03/12 09:28:26;;;;;;;15.65;9.55;;;9.50;99.90;;;;;;6192541;23;20020;-77
2022/03/12 09:30:53;;;;;;;12.93;8.55;;;9.70;99.90;;;;;;6215979;23;20436;-76
2022/03/12 09:33:21;;;;;;;17.00;9.23;;;9.70;99.90;;;;;;6218472;23;20016;-78
2022/03/12 09:35:47;;;;;;;17.00;9.25;;;9.90;99.90;;;;;;6204793;23;20012;-79
2022/03/12 09:38:14;;;;;;;15.35;9.13;;;10.10;99.90;;;;;;6242186;23;20086;-77
2022/03/12 09:40:41;;;;;;;16.58;9.32;;;10.20;99.90;;;;;;6243114;23;20051;-76
2022/03/12 09:43:09;;;;;;;12.82;8.82;;;10.30;99.90;;;;;;6244042;23;20004;-81
2022/03/12 09:45:36;;;;;;;13.80;8.88;;;10.50;99.90;;;;;;6217720;23;20019;-79
2022/03/12 09:48:02;;;;;;;14.63;8.52;;;10.70;99.90;;;;;;6217759;23;20012;-83
2022/03/12 09:50:28;;;;;;;18.05;8.98;;;11.10;99.90;;;;;;6217844;23;20023;-83
2022/03/12 09:52:54;;;;;;;14.05;8.68;;;11.00;99.90;;;;;;6242881;23;20008;-83
2022/03/12 09:55:20;;;;;;;14.25;9.25;;;11.20;99.90;;;;;;6217426;23;20023;-79
2022/03/12 09:57:47;;;;;;;15.48;9.52;;;11.20;99.90;;;;;;6243680;23;20009;-82
2022/03/12 10:00:14;;;;;;;16.65;8.73;;;11.30;99.90;;;;;;6217172;23;20132;-79
2022/03/12 10:02:40;;;;;;;17.95;9.35;;;11.30;99.90;;;;;;6243811;23;20008;-79
2022/03/12 10:05:07;;;;;;;14.27;9.20;;;11.40;99.90;;;;;;6243218;23;20012;-77
2022/03/12 10:07:33;;;;;;;17.20;9.75;;;11.50;99.90;;;;;;6243634;22;20016;-78
2022/03/12 10:09:59;;;;;;;18.23;9.32;;;11.60;99.90;;;;;;6217807;23;20086;-77
2022/03/12 10:12:26;;;;;;;17.52;8.63;;;11.60;99.90;;;;;;6217584;23;20392;-83
2022/03/12 10:14:54;;;;;;;14.45;9.15;;;11.70;99.90;;;;;;6217272;23;20023;-85
2022/03/12 10:17:19;;;;;;;17.05;8.80;;;12.00;99.90;;;;;;6244945;23;20046;-77
2022/03/12 10:19:46;;;;;;;18.25;8.88;;;12.30;99.90;;;;;;6242791;23;20008;-80
2022/03/12 10:22:12;;;;;;;17.55;9.63;;;12.00;99.90;;;;;;6242648;23;20043;-81
2022/03/12 10:24:37;;;;;;;14.90;9.25;;;12.10;99.90;;;;;;6243400;23;20445;-80
2022/03/12 10:27:07;;;;;;;14.75;8.82;;;12.10;99.90;;;;;;6242074;23;20043;-80
2022/03/12 10:29:34;;;;;;;13.32;8.93;;;12.30;99.90;;;;;;6241862;23;20445;-80
2022/03/12 10:32:21;;;;;;;14.90;9.38;;;12.50;99.90;;;;;;6242453;23;20019;-79
2022/03/12 10:34:52;;;;;;;12.25;8.93;;;12.60;99.90;;;;;;6242584;23;20020;-79
2022/03/12 10:37:19;;;;;;;15.57;9.57;;;12.60;99.90;;;;;;6242975;23;20058;-80
2022/03/12 10:39:45;;;;;;;17.42;9.65;;;12.60;99.90;;;;;;6242424;23;20095;-77
2022/03/12 10:42:14;;;;;;;14.65;8.98;;;12.80;99.90;;;;;;6242929;23;20270;-78
2022/03/12 10:44:41;;;;;;;15.00;8.63;;;12.80;99.90;;;;;;6216419;23;20099;-84
2022/03/12 10:47:23;;;;;;;17.50;8.45;;;12.90;99.90;;;;;;6242612;23;20008;-85
2022/03/12 10:49:57;;;;;;;10.88;8.90;;;13.10;99.90;;;;;;6242545;23;20016;-78
2022/03/12 10:52:27;;;;;;;14.43;9.10;;;13.10;99.90;;;;;;6245481;22;20050;-83
2022/03/12 10:54:53;;;;;;;15.27;9.38;;;13.10;99.90;;;;;;6243579;23;20107;-78
2022/03/12 10:57:19;;;;;;;13.43;9.40;;;13.10;99.90;;;;;;6217850;23;20195;-80
2022/03/12 10:59:45;;;;;;;11.15;8.93;;;12.90;99.90;;;;;;6216378;23;20020;-77
2022/03/12 11:02:12;;;;;;;10.98;8.70;;;13.00;99.90;;;;;;6243142;23;20020;-76
2022/03/12 11:04:39;;;;;;;11.57;9.15;;;13.00;99.90;;;;;;6242877;23;20019;-79
2022/03/12 11:07:26;;;;;;;12.63;9.25;;;13.20;99.90;;;;;;6243267;22;20337;-78
2022/03/12 11:09:56;;;;;;;12.25;9.32;;;13.30;99.90;;;;;;6216629;23;20435;-79
2022/03/12 11:12:30;;;;;;;12.30;8.95;;;13.40;99.90;;;;;;6217135;23;20024;-76
2022/03/12 11:15:02;;;;;;;15.77;9.18;;;13.50;99.90;;;;;;6241016;23;20020;-77
2022/03/12 11:17:28;;;;;;;12.88;8.63;;;13.60;99.90;;;;;;6217058;23;20095;-81
2022/03/12 11:19:57;;;;;;;14.50;8.48;;;13.70;99.90;;;;;;6241621;23;20116;-77
2022/03/12 11:22:23;;;;;;;12.57;8.25;;;14.00;99.90;;;;;;6241577;23;20015;-79
2022/03/12 11:24:52;;;;;;;11.73;7.85;;;14.10;99.90;;;;;;6216705;23;20036;-79
2022/03/12 11:27:28;;;;;;;7.90;6.13;;;14.30;99.90;;;;;;6244163;22;20019;-79
2022/03/12 11:30:13;;;;;;;8.98;7.05;;;14.60;99.90;;;;;;6240518;23;20042;-79
2022/03/12 11:32:45;;;;;;;13.90;6.75;;;14.50;99.90;;;;;;6241784;23;20090;-78
2022/03/12 11:35:15;;;;;;;10.52;6.28;;;14.40;99.90;;;;;;6215336;23;20035;-79
2022/03/12 11:37:42;;;;;;;12.50;6.65;;;14.60;99.90;;;;;;6241184;23;20570;-77
2022/03/12 11:40:17;;;;;;;12.73;6.55;;;14.70;99.90;;;;;;6240780;23;20016;-80
2022/03/12 11:42:43;;;;;;;10.07;6.07;;;14.70;99.90;;;;;;6242450;23;20012;-80
2022/03/12 11:45:15;;;;;;;11.65;6.97;;;14.60;99.90;;;;;;6242661;23;20011;-78
2022/03/12 11:47:43;;;;;;;12.88;6.75;;;14.70;99.90;;;;;;6243260;22;20016;-81
2022/03/12 11:50:18;;;;;;;12.40;6.50;;;15.00;99.90;;;;;;6242236;23;20070;-81
2022/03/12 11:52:44;;;;;;;9.95;6.70;;;14.90;99.90;;;;;;6242496;23;20008;-78
2022/03/12 11:55:28;;;;;;;13.02;6.28;;;15.00;99.90;;;;;;6242332;23;20023;-77
2022/03/12 11:57:57;;;;;;;14.43;6.50;;;14.90;99.90;;;;;;6242749;23;20428;-79
2022/03/12 12:00:29;;;;;;;11.38;5.80;;;15.00;99.90;;;;;;6215820;23;20376;-81
2022/03/12 12:02:55;;;;;;;8.35;6.00;;;15.00;99.90;;;;;;6242543;23;20392;-84
2022/03/12 12:05:23;;;;;;;12.77;6.25;;;15.10;99.90;;;;;;6242294;23;20054;-82
2022/03/12 12:07:51;;;;;;;8.45;5.75;;;15.10;99.90;;;;;;6242415;22;20016;-81
2022/03/12 12:10:19;;;;;;;9.57;5.70;;;15.30;99.90;;;;;;6241734;23;20026;-83
2022/03/12 12:12:47;;;;;;;11.30;5.90;;;15.40;99.90;;;;;;6242639;23;20019;-79
2022/03/12 12:15:19;;;;;;;11.10;5.75;;;15.50;99.90;;;;;;6215878;23;20085;-79
2022/03/12 12:17:46;;;;;;;8.75;6.13;;;15.60;99.90;;;;;;6217126;23;20027;-79
2022/03/12 12:20:18;;;;;;;11.98;6.05;;;15.80;99.90;;;;;;6242248;23;20085;-78
2022/03/12 12:22:44;;;;;;;10.52;6.18;;;15.90;99.90;;;;;;6242527;23;20039;-80
2022/03/12 12:25:11;;;;;;;9.70;6.10;;;15.80;99.90;;;;;;6216047;23;20044;-79
2022/03/12 12:27:46;;;;;;;13.70;6.10;;;15.80;99.90;;;;;;6242054;23;20055;-80
2022/03/12 12:30:16;;;;;;;12.18;6.07;;;15.90;99.90;;;;;;6240920;23;20012;-81
2022/03/12 12:32:48;;;;;;;14.82;5.50;;;16.00;99.90;;;;;;6242021;23;20115;-81
2022/03/12 12:35:22;;;;;;;10.60;6.10;;;16.00;99.90;;;;;;6241548;23;20058;-82
2022/03/12 12:37:52;;;;;;;9.17;6.23;;;16.00;99.90;;;;;;6242037;23;20020;-78
2022/03/12 12:40:23;;;;;;;12.98;5.75;;;16.20;99.90;;;;;;6241582;23;20653;-82
2022/03/12 12:42:51;;;;;;;9.60;5.78;;;16.00;99.90;;;;;;6216672;23;20016;-78
2022/03/12 12:45:22;;;;;;;9.88;5.35;;;16.10;99.90;;;;;;6214886;23;20016;-78
2022/03/12 12:48:05;;;;;;;13.13;5.88;;;16.00;99.90;;;;;;6216219;23;20016;-80